sensor_id;sensor_type;location;lat;lon;timestamp;temperature;humidity
39847;DHT22;25517;52.422;10.782;2023-06-04T00:00:05;10.80;89.20
39847;DHT22;25517;52.422;10.782;2023-06-04T00:02:32;10.70;90.00
39847;DHT22;25517;52.422;10.782;2023-06-04T00:04:58;10.70;89.90
39847;DHT22;25517;52.422;10.782;2023-06-04T00:07:24;10.70;90.80
39847;DHT22;25517;52.422;10.782;2023-06-04T00:09:49;10.60;91.00
39847;DHT22;25517;52.422;10.782;2023-06-04T00:12:15;10.60;91.30
39847;DHT22;25517;52.422;10.782;2023-06-04T00:14:41;10.60;91.10
39847;DHT22;25517;52.422;10.782;2023-06-04T00:17:08;10.60;90.80
39847;DHT22;25517;52.422;10.782;2023-06-04T00:19:35;10.70;90.00
39847;DHT22;25517;52.422;10.782;2023-06-04T00:22:01;10.70;90.80
39847;DHT22;25517;52.422;10.782;2023-06-04T00:24:26;10.70;90.40
39847;DHT22;25517;52.422;10.782;2023-06-04T00:26:52;10.50;91.30
39847;DHT22;25517;52.422;10.782;2023-06-04T00:29:17;10.50;92.50
39847;DHT22;25517;52.422;10.782;2023-06-04T00:31:43;10.50;91.20
39847;DHT22;25517;52.422;10.782;2023-06-04T00:34:10;10.40;91.70
39847;DHT22;25517;52.422;10.782;2023-06-04T00:36:36;10.30;93.00
39847;DHT22;25517;52.422;10.782;2023-06-04T00:39:02;10.30;92.60
39847;DHT22;25517;52.422;10.782;2023-06-04T00:41:27;10.30;92.40
39847;DHT22;25517;52.422;10.782;2023-06-04T00:43:53;10.20;94.60
39847;DHT22;25517;52.422;10.782;2023-06-04T00:46:25;10.10;93.80
39847;DHT22;25517;52.422;10.782;2023-06-04T00:48:52;10.10;93.60
39847;DHT22;25517;52.422;10.782;2023-06-04T00:51:19;10.20;93.30
39847;DHT22;25517;52.422;10.782;2023-06-04T00:53:46;10.20;93.60
39847;DHT22;25517;52.422;10.782;2023-06-04T00:56:12;10.20;93.50
39847;DHT22;25517;52.422;10.782;2023-06-04T00:58:39;10.20;93.00
39847;DHT22;25517;52.422;10.782;2023-06-04T01:01:09;10.20;93.20
39847;DHT22;25517;52.422;10.782;2023-06-04T01:03:38;10.10;94.70
39847;DHT22;25517;52.422;10.782;2023-06-04T01:08:48;10.00;95.50
39847;DHT22;25517;52.422;10.782;2023-06-04T01:11:14;10.00;94.20
39847;DHT22;25517;52.422;10.782;2023-06-04T01:13:40;10.10;94.00
39847;DHT22;25517;52.422;10.782;2023-06-04T01:16:06;10.10;95.70
39847;DHT22;25517;52.422;10.782;2023-06-04T01:18:35;10.00;96.10
39847;DHT22;25517;52.422;10.782;2023-06-04T01:21:06;9.90;96.80
39847;DHT22;25517;52.422;10.782;2023-06-04T01:23:46;9.80;97.60
39847;DHT22;25517;52.422;10.782;2023-06-04T01:26:12;9.80;96.80
39847;DHT22;25517;52.422;10.782;2023-06-04T01:28:42;9.80;98.30
39847;DHT22;25517;52.422;10.782;2023-06-04T01:31:14;9.70;98.30
39847;DHT22;25517;52.422;10.782;2023-06-04T01:33:40;9.70;97.30
39847;DHT22;25517;52.422;10.782;2023-06-04T01:36:08;9.70;98.80
39847;DHT22;25517;52.422;10.782;2023-06-04T01:38:37;9.60;99.50
39847;DHT22;25517;52.422;10.782;2023-06-04T01:41:03;9.60;98.90
39847;DHT22;25517;52.422;10.782;2023-06-04T01:43:29;9.60;99.40
39847;DHT22;25517;52.422;10.782;2023-06-04T01:45:55;9.50;99.20
39847;DHT22;25517;52.422;10.782;2023-06-04T01:48:22;9.50;99.40
39847;DHT22;25517;52.422;10.782;2023-06-04T01:50:47;9.40;99.80
39847;DHT22;25517;52.422;10.782;2023-06-04T01:53:13;9.30;99.90
39847;DHT22;25517;52.422;10.782;2023-06-04T01:55:38;9.20;99.90
39847;DHT22;25517;52.422;10.782;2023-06-04T01:58:04;9.10;99.90
39847;DHT22;25517;52.422;10.782;2023-06-04T02:00:30;9.10;99.90
39847;DHT22;25517;52.422;10.782;2023-06-04T02:02:56;9.10;99.90
39847;DHT22;25517;52.422;10.782;2023-06-04T02:05:21;9.10;99.90
39847;DHT22;25517;52.422;10.782;2023-06-04T02:07:47;9.10;99.90
39847;DHT22;25517;52.422;10.782;2023-06-04T02:10:15;9.00;99.90
39847;DHT22;25517;52.422;10.782;2023-06-04T02:12:59;9.00;99.90
39847;DHT22;25517;52.422;10.782;2023-06-04T02:15:26;9.00;99.90
39847;DHT22;25517;52.422;10.782;2023-06-04T02:17:56;9.00;99.90
39847;DHT22;25517;52.422;10.782;2023-06-04T02:20:27;9.00;99.90
39847;DHT22;25517;52.422;10.782;2023-06-04T02:22:56;9.00;99.90
39847;DHT22;25517;52.422;10.782;2023-06-04T02:25:22;8.80;99.90
39847;DHT22;25517;52.422;10.782;2023-06-04T02:27:49;8.80;99.90
39847;DHT22;25517;52.422;10.782;2023-06-04T02:30:15;8.90;99.90
39847;DHT22;25517;52.422;10.782;2023-06-04T02:32:42;8.80;99.90
39847;DHT22;25517;52.422;10.782;2023-06-04T02:35:10;8.70;99.90
39847;DHT22;25517;52.422;10.782;2023-06-04T02:37:36;8.70;99.90
39847;DHT22;25517;52.422;10.782;2023-06-04T02:40:02;8.70;99.90
39847;DHT22;25517;52.422;10.782;2023-06-04T02:42:27;8.70;99.90
39847;DHT22;25517;52.422;10.782;2023-06-04T02:44:53;8.70;99.90
39847;DHT22;25517;52.422;10.782;2023-06-04T02:47:19;8.70;99.90
39847;DHT22;25517;52.422;10.782;2023-06-04T02:49:45;8.60;99.90
39847;DHT22;25517;52.422;10.782;2023-06-04T02:52:12;8.60;99.90
39847;DHT22;25517;52.422;10.782;2023-06-04T02:54:38;8.60;99.90
39847;DHT22;25517;52.422;10.782;2023-06-04T02:57:04;8.50;99.90
39847;DHT22;25517;52.422;10.782;2023-06-04T02:59:29;8.50;99.90
39847;DHT22;25517;52.422;10.782;2023-06-04T03:01:55;8.40;99.90
39847;DHT22;25517;52.422;10.782;2023-06-04T03:04:21;8.30;99.90
39847;DHT22;25517;52.422;10.782;2023-06-04T03:06:46;8.40;99.90
39847;DHT22;25517;52.422;10.782;2023-06-04T03:09:12;8.40;99.90
39847;DHT22;25517;52.422;10.782;2023-06-04T03:11:38;8.30;99.90
39847;DHT22;25517;52.422;10.782;2023-06-04T03:14:04;8.40;99.90
39847;DHT22;25517;52.422;10.782;2023-06-04T03:16:29;8.30;99.90
39847;DHT22;25517;52.422;10.782;2023-06-04T03:18:55;8.20;99.90
39847;DHT22;25517;52.422;10.782;2023-06-04T03:21:22;8.10;99.90
39847;DHT22;25517;52.422;10.782;2023-06-04T03:23:47;8.10;99.90
39847;DHT22;25517;52.422;10.782;2023-06-04T03:26:13;8.10;99.90
39847;DHT22;25517;52.422;10.782;2023-06-04T03:28:39;8.00;99.90
39847;DHT22;25517;52.422;10.782;2023-06-04T03:31:05;8.00;99.90
39847;DHT22;25517;52.422;10.782;2023-06-04T03:33:31;8.10;99.90
39847;DHT22;25517;52.422;10.782;2023-06-04T03:35:56;8.10;99.90
39847;DHT22;25517;52.422;10.782;2023-06-04T03:38:25;8.00;99.90
39847;DHT22;25517;52.422;10.782;2023-06-04T03:40:51;8.10;99.90
39847;DHT22;25517;52.422;10.782;2023-06-04T03:43:18;8.10;99.90
39847;DHT22;25517;52.422;10.782;2023-06-04T03:45:44;8.10;99.90
39847;DHT22;25517;52.422;10.782;2023-06-04T03:48:09;8.20;99.90
39847;DHT22;25517;52.422;10.782;2023-06-04T03:50:36;8.30;99.90
39847;DHT22;25517;52.422;10.782;2023-06-04T03:53:01;8.40;99.90
39847;DHT22;25517;52.422;10.782;2023-06-04T03:55:30;8.40;99.90
39847;DHT22;25517;52.422;10.782;2023-06-04T03:57:57;8.50;99.90
39847;DHT22;25517;52.422;10.782;2023-06-04T04:00:23;8.60;99.90
39847;DHT22;25517;52.422;10.782;2023-06-04T04:02:49;8.60;99.90
39847;DHT22;25517;52.422;10.782;2023-06-04T04:05:15;8.70;99.90
39847;DHT22;25517;52.422;10.782;2023-06-04T04:07:40;8.70;99.90
39847;DHT22;25517;52.422;10.782;2023-06-04T04:10:06;8.80;99.90
39847;DHT22;25517;52.422;10.782;2023-06-04T04:12:32;8.80;99.90
39847;DHT22;25517;52.422;10.782;2023-06-04T04:14:58;8.80;99.90
39847;DHT22;25517;52.422;10.782;2023-06-04T04:17:24;8.90;99.90
39847;DHT22;25517;52.422;10.782;2023-06-04T04:19:49;8.80;99.90
39847;DHT22;25517;52.422;10.782;2023-06-04T04:22:15;8.90;99.90
39847;DHT22;25517;52.422;10.782;2023-06-04T04:24:43;8.90;99.90
39847;DHT22;25517;52.422;10.782;2023-06-04T04:27:09;8.90;99.90
39847;DHT22;25517;52.422;10.782;2023-06-04T04:29:41;8.90;99.90
39847;DHT22;25517;52.422;10.782;2023-06-04T04:32:07;9.00;99.90
39847;DHT22;25517;52.422;10.782;2023-06-04T04:34:38;9.00;99.90
39847;DHT22;25517;52.422;10.782;2023-06-04T04:37:08;9.00;99.90
39847;DHT22;25517;52.422;10.782;2023-06-04T04:39:34;9.10;99.90
39847;DHT22;25517;52.422;10.782;2023-06-04T04:42:00;9.10;99.90
39847;DHT22;25517;52.422;10.782;2023-06-04T04:44:26;9.10;99.90
39847;DHT22;25517;52.422;10.782;2023-06-04T04:46:51;9.20;99.90
39847;DHT22;25517;52.422;10.782;2023-06-04T04:49:17;9.30;99.90
39847;DHT22;25517;52.422;10.782;2023-06-04T04:51:42;9.40;99.90
39847;DHT22;25517;52.422;10.782;2023-06-04T04:54:08;9.30;99.90
39847;DHT22;25517;52.422;10.782;2023-06-04T04:56:34;9.40;99.90
39847;DHT22;25517;52.422;10.782;2023-06-04T04:59:00;9.50;99.90
39847;DHT22;25517;52.422;10.782;2023-06-04T05:01:26;9.60;99.90
39847;DHT22;25517;52.422;10.782;2023-06-04T05:03:51;9.60;99.90
39847;DHT22;25517;52.422;10.782;2023-06-04T05:06:17;9.70;99.90
39847;DHT22;25517;52.422;10.782;2023-06-04T05:08:43;9.70;99.90
39847;DHT22;25517;52.422;10.782;2023-06-04T05:11:08;9.80;99.90
39847;DHT22;25517;52.422;10.782;2023-06-04T05:13:34;9.90;99.90
39847;DHT22;25517;52.422;10.782;2023-06-04T05:16:00;9.90;99.90
39847;DHT22;25517;52.422;10.782;2023-06-04T05:18:32;10.00;99.90
39847;DHT22;25517;52.422;10.782;2023-06-04T05:20:58;10.00;99.90
39847;DHT22;25517;52.422;10.782;2023-06-04T05:23:26;10.00;99.90
39847;DHT22;25517;52.422;10.782;2023-06-04T05:25:51;10.10;99.90
39847;DHT22;25517;52.422;10.782;2023-06-04T05:28:19;10.20;99.90
39847;DHT22;25517;52.422;10.782;2023-06-04T05:30:45;10.20;99.90
39847;DHT22;25517;52.422;10.782;2023-06-04T05:33:13;10.30;99.90
39847;DHT22;25517;52.422;10.782;2023-06-04T05:35:47;10.40;99.90
39847;DHT22;25517;52.422;10.782;2023-06-04T05:38:14;10.40;99.90
39847;DHT22;25517;52.422;10.782;2023-06-04T05:40:44;10.50;99.90
39847;DHT22;25517;52.422;10.782;2023-06-04T05:43:10;10.50;99.90
39847;DHT22;25517;52.422;10.782;2023-06-04T05:45:36;10.60;99.90
39847;DHT22;25517;52.422;10.782;2023-06-04T05:48:02;10.70;98.30
39847;DHT22;25517;52.422;10.782;2023-06-04T05:50:28;10.80;98.80
39847;DHT22;25517;52.422;10.782;2023-06-04T05:52:53;10.90;98.50
39847;DHT22;25517;52.422;10.782;2023-06-04T05:55:19;10.90;98.50
39847;DHT22;25517;52.422;10.782;2023-06-04T05:57:45;11.00;98.30
39847;DHT22;25517;52.422;10.782;2023-06-04T06:00:11;11.10;98.10
39847;DHT22;25517;52.422;10.782;2023-06-04T06:02:36;11.10;99.90
39847;DHT22;25517;52.422;10.782;2023-06-04T06:05:04;11.20;99.00
39847;DHT22;25517;52.422;10.782;2023-06-04T06:07:32;11.20;99.00
39847;DHT22;25517;52.422;10.782;2023-06-04T06:09:57;11.40;98.00
39847;DHT22;25517;52.422;10.782;2023-06-04T06:12:23;11.50;97.40
39847;DHT22;25517;52.422;10.782;2023-06-04T06:14:48;11.60;96.80
39847;DHT22;25517;52.422;10.782;2023-06-04T06:17:14;11.70;96.00
39847;DHT22;25517;52.422;10.782;2023-06-04T06:19:40;11.80;95.60
39847;DHT22;25517;52.422;10.782;2023-06-04T06:22:05;12.00;95.50
39847;DHT22;25517;52.422;10.782;2023-06-04T06:24:31;12.00;96.20
39847;DHT22;25517;52.422;10.782;2023-06-04T06:26:56;12.10;96.10
39847;DHT22;25517;52.422;10.782;2023-06-04T06:29:22;12.20;96.50
39847;DHT22;25517;52.422;10.782;2023-06-04T06:31:47;12.40;95.20
39847;DHT22;25517;52.422;10.782;2023-06-04T06:34:13;12.40;95.20
39847;DHT22;25517;52.422;10.782;2023-06-04T06:36:39;12.60;95.10
39847;DHT22;25517;52.422;10.782;2023-06-04T06:39:04;12.70;94.40
39847;DHT22;25517;52.422;10.782;2023-06-04T06:41:30;12.80;94.00
39847;DHT22;25517;52.422;10.782;2023-06-04T06:43:56;13.00;95.50
39847;DHT22;25517;52.422;10.782;2023-06-04T06:46:22;13.00;95.40
39847;DHT22;25517;52.422;10.782;2023-06-04T06:48:48;13.10;95.90
39847;DHT22;25517;52.422;10.782;2023-06-04T06:51:14;13.20;94.30
39847;DHT22;25517;52.422;10.782;2023-06-04T06:53:39;13.30;93.70
39847;DHT22;25517;52.422;10.782;2023-06-04T06:56:06;13.40;93.50
39847;DHT22;25517;52.422;10.782;2023-06-04T06:58:31;13.60;93.20
39847;DHT22;25517;52.422;10.782;2023-06-04T07:00:57;13.70;93.20
39847;DHT22;25517;52.422;10.782;2023-06-04T07:03:22;13.80;93.30
39847;DHT22;25517;52.422;10.782;2023-06-04T07:05:48;13.90;92.20
39847;DHT22;25517;52.422;10.782;2023-06-04T07:08:14;14.00;93.20
39847;DHT22;25517;52.422;10.782;2023-06-04T07:10:39;14.10;92.40
39847;DHT22;25517;52.422;10.782;2023-06-04T07:13:05;14.20;90.50
39847;DHT22;25517;52.422;10.782;2023-06-04T07:15:30;14.40;90.70
39847;DHT22;25517;52.422;10.782;2023-06-04T07:17:56;14.60;91.20
39847;DHT22;25517;52.422;10.782;2023-06-04T07:20:21;14.80;90.80
39847;DHT22;25517;52.422;10.782;2023-06-04T07:22:47;14.90;90.90
39847;DHT22;25517;52.422;10.782;2023-06-04T07:25:13;15.00;90.40
39847;DHT22;25517;52.422;10.782;2023-06-04T07:27:38;15.20;90.60
39847;DHT22;25517;52.422;10.782;2023-06-04T07:30:05;15.30;87.90
39847;DHT22;25517;52.422;10.782;2023-06-04T07:32:31;15.50;87.40
39847;DHT22;25517;52.422;10.782;2023-06-04T07:34:57;15.60;85.80
39847;DHT22;25517;52.422;10.782;2023-06-04T07:37:22;15.80;83.40
39847;DHT22;25517;52.422;10.782;2023-06-04T07:39:48;15.90;80.80
39847;DHT22;25517;52.422;10.782;2023-06-04T07:42:13;16.10;80.10
39847;DHT22;25517;52.422;10.782;2023-06-04T07:44:39;16.30;79.10
39847;DHT22;25517;52.422;10.782;2023-06-04T07:47:05;16.40;79.10
39847;DHT22;25517;52.422;10.782;2023-06-04T07:49:31;16.60;77.30
39847;DHT22;25517;52.422;10.782;2023-06-04T07:51:56;16.70;78.40
39847;DHT22;25517;52.422;10.782;2023-06-04T07:54:23;16.90;77.80
39847;DHT22;25517;52.422;10.782;2023-06-04T07:56:49;17.10;78.30
39847;DHT22;25517;52.422;10.782;2023-06-04T07:59:14;17.30;79.30
39847;DHT22;25517;52.422;10.782;2023-06-04T08:01:40;17.50;76.70
39847;DHT22;25517;52.422;10.782;2023-06-04T08:04:05;17.80;77.90
39847;DHT22;25517;52.422;10.782;2023-06-04T08:06:31;18.20;77.70
39847;DHT22;25517;52.422;10.782;2023-06-04T08:08:56;18.40;75.90
39847;DHT22;25517;52.422;10.782;2023-06-04T08:11:22;18.90;71.90
39847;DHT22;25517;52.422;10.782;2023-06-04T08:13:50;19.60;72.30
39847;DHT22;25517;52.422;10.782;2023-06-04T08:16:16;20.70;70.20
39847;DHT22;25517;52.422;10.782;2023-06-04T08:18:42;21.90;68.50
39847;DHT22;25517;52.422;10.782;2023-06-04T08:21:11;23.30;63.20
39847;DHT22;25517;52.422;10.782;2023-06-04T08:23:37;24.40;57.40
39847;DHT22;25517;52.422;10.782;2023-06-04T08:26:02;25.10;55.90
39847;DHT22;25517;52.422;10.782;2023-06-04T08:28:28;26.20;52.00
39847;DHT22;25517;52.422;10.782;2023-06-04T08:30:53;27.00;51.60
39847;DHT22;25517;52.422;10.782;2023-06-04T08:33:19;27.80;49.30
39847;DHT22;25517;52.422;10.782;2023-06-04T08:35:44;28.10;46.20
39847;DHT22;25517;52.422;10.782;2023-06-04T08:38:10;28.80;46.00
39847;DHT22;25517;52.422;10.782;2023-06-04T08:40:35;29.20;45.00
39847;DHT22;25517;52.422;10.782;2023-06-04T08:43:01;29.50;42.40
39847;DHT22;25517;52.422;10.782;2023-06-04T08:45:27;30.60;42.60
39847;DHT22;25517;52.422;10.782;2023-06-04T08:47:53;31.10;41.60
39847;DHT22;25517;52.422;10.782;2023-06-04T08:50:21;31.60;41.70
39847;DHT22;25517;52.422;10.782;2023-06-04T08:52:55;32.20;39.20
39847;DHT22;25517;52.422;10.782;2023-06-04T08:55:21;32.20;37.70
39847;DHT22;25517;52.422;10.782;2023-06-04T08:57:49;33.00;37.60
39847;DHT22;25517;52.422;10.782;2023-06-04T09:00:18;33.30;38.30
39847;DHT22;25517;52.422;10.782;2023-06-04T09:02:45;33.30;37.10
39847;DHT22;25517;52.422;10.782;2023-06-04T09:05:18;33.90;38.40
39847;DHT22;25517;52.422;10.782;2023-06-04T09:07:46;33.80;35.70
39847;DHT22;25517;52.422;10.782;2023-06-04T09:10:12;33.50;36.90
39847;DHT22;25517;52.422;10.782;2023-06-04T09:12:43;33.70;35.80
39847;DHT22;25517;52.422;10.782;2023-06-04T09:15:11;34.60;35.00
39847;DHT22;25517;52.422;10.782;2023-06-04T09:17:37;35.10;34.50
39847;DHT22;25517;52.422;10.782;2023-06-04T09:20:02;34.80;34.60
39847;DHT22;25517;52.422;10.782;2023-06-04T09:22:36;34.90;35.40
39847;DHT22;25517;52.422;10.782;2023-06-04T09:25:05;35.30;34.80
39847;DHT22;25517;52.422;10.782;2023-06-04T09:27:39;35.10;36.40
39847;DHT22;25517;52.422;10.782;2023-06-04T09:30:06;35.20;34.40
39847;DHT22;25517;52.422;10.782;2023-06-04T09:32:33;35.70;34.30
39847;DHT22;25517;52.422;10.782;2023-06-04T09:35:18;36.00;34.20
39847;DHT22;25517;52.422;10.782;2023-06-04T09:37:56;35.90;33.50
39847;DHT22;25517;52.422;10.782;2023-06-04T09:40:23;35.90;32.80
39847;DHT22;25517;52.422;10.782;2023-06-04T09:42:49;35.40;32.90
39847;DHT22;25517;52.422;10.782;2023-06-04T09:45:35;35.70;32.20
39847;DHT22;25517;52.422;10.782;2023-06-04T09:48:02;35.60;32.10
39847;DHT22;25517;52.422;10.782;2023-06-04T09:50:32;35.60;33.50
39847;DHT22;25517;52.422;10.782;2023-06-04T09:53:18;36.10;32.40
39847;DHT22;25517;52.422;10.782;2023-06-04T09:55:56;35.70;32.00
39847;DHT22;25517;52.422;10.782;2023-06-04T09:58:25;36.10;33.50
39847;DHT22;25517;52.422;10.782;2023-06-04T10:00:53;36.00;32.30
39847;DHT22;25517;52.422;10.782;2023-06-04T10:03:21;36.60;33.50
39847;DHT22;25517;52.422;10.782;2023-06-04T10:05:52;36.80;33.20
39847;DHT22;25517;52.422;10.782;2023-06-04T10:08:18;36.80;32.30
39847;DHT22;25517;52.422;10.782;2023-06-04T10:10:47;36.30;33.10
39847;DHT22;25517;52.422;10.782;2023-06-04T10:13:17;35.90;33.70
39847;DHT22;25517;52.422;10.782;2023-06-04T10:15:44;36.80;33.20
39847;DHT22;25517;52.422;10.782;2023-06-04T10:18:10;37.60;32.00
39847;DHT22;25517;52.422;10.782;2023-06-04T10:20:39;37.40;32.40
39847;DHT22;25517;52.422;10.782;2023-06-04T10:23:06;37.70;32.00
39847;DHT22;25517;52.422;10.782;2023-06-04T10:25:34;37.30;32.00
39847;DHT22;25517;52.422;10.782;2023-06-04T10:28:01;36.70;32.20
39847;DHT22;25517;52.422;10.782;2023-06-04T10:30:29;37.40;30.80
39847;DHT22;25517;52.422;10.782;2023-06-04T10:32:59;37.90;31.40
39847;DHT22;25517;52.422;10.782;2023-06-04T10:35:35;37.10;30.20
39847;DHT22;25517;52.422;10.782;2023-06-04T10:38:08;37.10;31.00
39847;DHT22;25517;52.422;10.782;2023-06-04T10:40:35;37.70;30.50
39847;DHT22;25517;52.422;10.782;2023-06-04T10:43:08;36.70;31.20
39847;DHT22;25517;52.422;10.782;2023-06-04T10:45:35;36.70;30.90
39847;DHT22;25517;52.422;10.782;2023-06-04T10:48:01;37.00;30.90
39847;DHT22;25517;52.422;10.782;2023-06-04T10:50:28;36.80;29.70
39847;DHT22;25517;52.422;10.782;2023-06-04T10:52:55;37.30;30.40
39847;DHT22;25517;52.422;10.782;2023-06-04T10:55:23;37.40;29.80
39847;DHT22;25517;52.422;10.782;2023-06-04T10:57:57;38.00;30.20
39847;DHT22;25517;52.422;10.782;2023-06-04T11:00:34;37.50;31.00
39847;DHT22;25517;52.422;10.782;2023-06-04T11:03:02;37.90;29.60
39847;DHT22;25517;52.422;10.782;2023-06-04T11:05:37;37.50;30.60
39847;DHT22;25517;52.422;10.782;2023-06-04T11:08:04;37.70;31.20
39847;DHT22;25517;52.422;10.782;2023-06-04T11:10:47;37.10;32.00
39847;DHT22;25517;52.422;10.782;2023-06-04T11:13:13;37.40;30.20
39847;DHT22;25517;52.422;10.782;2023-06-04T11:15:45;37.00;31.50
39847;DHT22;25517;52.422;10.782;2023-06-04T11:18:19;36.50;32.20
39847;DHT22;25517;52.422;10.782;2023-06-04T11:20:49;36.30;30.00
39847;DHT22;25517;52.422;10.782;2023-06-04T11:23:16;35.70;30.60
39847;DHT22;25517;52.422;10.782;2023-06-04T11:25:43;35.00;32.40
39847;DHT22;25517;52.422;10.782;2023-06-04T11:28:16;35.90;30.40
39847;DHT22;25517;52.422;10.782;2023-06-04T11:30:43;36.50;30.40
39847;DHT22;25517;52.422;10.782;2023-06-04T11:33:09;36.80;30.20
39847;DHT22;25517;52.422;10.782;2023-06-04T11:35:41;36.40;31.20
39847;DHT22;25517;52.422;10.782;2023-06-04T11:38:09;35.90;29.90
39847;DHT22;25517;52.422;10.782;2023-06-04T11:40:34;36.60;29.70
39847;DHT22;25517;52.422;10.782;2023-06-04T11:43:01;37.10;29.40
39847;DHT22;25517;52.422;10.782;2023-06-04T11:45:27;36.00;30.30
39847;DHT22;25517;52.422;10.782;2023-06-04T11:47:56;35.70;32.00
39847;DHT22;25517;52.422;10.782;2023-06-04T11:50:25;35.80;32.00
39847;DHT22;25517;52.422;10.782;2023-06-04T11:52:52;35.60;31.70
39847;DHT22;25517;52.422;10.782;2023-06-04T11:55:18;34.40;32.40
39847;DHT22;25517;52.422;10.782;2023-06-04T11:57:46;33.80;35.30
39847;DHT22;25517;52.422;10.782;2023-06-04T12:00:12;33.50;33.30
39847;DHT22;25517;52.422;10.782;2023-06-04T12:02:48;33.80;33.40
39847;DHT22;25517;52.422;10.782;2023-06-04T12:05:14;33.10;34.30
39847;DHT22;25517;52.422;10.782;2023-06-04T12:07:40;32.30;35.10
39847;DHT22;25517;52.422;10.782;2023-06-04T12:10:10;32.30;33.90
39847;DHT22;25517;52.422;10.782;2023-06-04T12:12:37;32.10;33.70
39847;DHT22;25517;52.422;10.782;2023-06-04T12:15:03;32.00;34.40
39847;DHT22;25517;52.422;10.782;2023-06-04T12:17:31;31.70;34.40
39847;DHT22;25517;52.422;10.782;2023-06-04T12:19:57;31.30;33.30
39847;DHT22;25517;52.422;10.782;2023-06-04T12:22:24;30.80;34.60
39847;DHT22;25517;52.422;10.782;2023-06-04T12:24:54;30.70;36.00
39847;DHT22;25517;52.422;10.782;2023-06-04T12:27:20;30.50;34.90
39847;DHT22;25517;52.422;10.782;2023-06-04T12:29:58;30.30;34.90
39847;DHT22;25517;52.422;10.782;2023-06-04T12:32:25;30.00;35.50
39847;DHT22;25517;52.422;10.782;2023-06-04T12:34:51;29.80;33.90
39847;DHT22;25517;52.422;10.782;2023-06-04T12:37:17;29.50;35.60
39847;DHT22;25517;52.422;10.782;2023-06-04T12:39:43;29.30;33.60
39847;DHT22;25517;52.422;10.782;2023-06-04T12:42:09;29.10;34.20
39847;DHT22;25517;52.422;10.782;2023-06-04T12:44:39;28.50;34.50
39847;DHT22;25517;52.422;10.782;2023-06-04T12:47:05;27.10;35.70
39847;DHT22;25517;52.422;10.782;2023-06-04T12:49:31;27.40;37.00
39847;DHT22;25517;52.422;10.782;2023-06-04T12:51:57;27.80;37.30
39847;DHT22;25517;52.422;10.782;2023-06-04T12:54:23;27.90;38.40
39847;DHT22;25517;52.422;10.782;2023-06-04T12:56:49;27.90;35.80
39847;DHT22;25517;52.422;10.782;2023-06-04T12:59:15;28.10;36.80
39847;DHT22;25517;52.422;10.782;2023-06-04T13:01:40;28.10;36.10
39847;DHT22;25517;52.422;10.782;2023-06-04T13:04:06;28.40;37.30
39847;DHT22;25517;52.422;10.782;2023-06-04T13:06:34;28.50;37.60
39847;DHT22;25517;52.422;10.782;2023-06-04T13:09:05;28.70;36.90
39847;DHT22;25517;52.422;10.782;2023-06-04T13:11:43;28.70;37.30
39847;DHT22;25517;52.422;10.782;2023-06-04T13:14:09;28.80;36.00
39847;DHT22;25517;52.422;10.782;2023-06-04T13:16:36;28.50;34.80
39847;DHT22;25517;52.422;10.782;2023-06-04T13:19:02;28.60;36.60
39847;DHT22;25517;52.422;10.782;2023-06-04T13:21:28;28.40;35.90
39847;DHT22;25517;52.422;10.782;2023-06-04T13:23:53;28.10;35.80
39847;DHT22;25517;52.422;10.782;2023-06-04T13:26:19;28.20;36.70
39847;DHT22;25517;52.422;10.782;2023-06-04T13:28:46;28.20;36.70
39847;DHT22;25517;52.422;10.782;2023-06-04T13:31:11;28.10;36.40
39847;DHT22;25517;52.422;10.782;2023-06-04T13:33:37;28.30;36.30
39847;DHT22;25517;52.422;10.782;2023-06-04T13:36:03;28.40;35.50
39847;DHT22;25517;52.422;10.782;2023-06-04T13:38:29;28.30;35.50
39847;DHT22;25517;52.422;10.782;2023-06-04T13:40:54;28.30;35.40
39847;DHT22;25517;52.422;10.782;2023-06-04T13:43:20;28.50;36.20
39847;DHT22;25517;52.422;10.782;2023-06-04T13:45:46;28.60;38.20
39847;DHT22;25517;52.422;10.782;2023-06-04T13:48:12;28.50;37.30
39847;DHT22;25517;52.422;10.782;2023-06-04T13:50:38;28.40;36.50
39847;DHT22;25517;52.422;10.782;2023-06-04T13:53:03;28.60;36.50
39847;DHT22;25517;52.422;10.782;2023-06-04T13:55:29;28.50;36.60
39847;DHT22;25517;52.422;10.782;2023-06-04T13:57:55;27.90;36.70
39847;DHT22;25517;52.422;10.782;2023-06-04T14:00:21;27.70;37.00
39847;DHT22;25517;52.422;10.782;2023-06-04T14:02:47;27.80;38.30
39847;DHT22;25517;52.422;10.782;2023-06-04T14:05:13;27.80;38.40
39847;DHT22;25517;52.422;10.782;2023-06-04T14:07:41;28.00;38.40
39847;DHT22;25517;52.422;10.782;2023-06-04T14:10:08;28.00;37.40
39847;DHT22;25517;52.422;10.782;2023-06-04T14:12:34;28.20;38.10
39847;DHT22;25517;52.422;10.782;2023-06-04T14:15:00;28.30;36.90
39847;DHT22;25517;52.422;10.782;2023-06-04T14:17:26;28.30;36.40
39847;DHT22;25517;52.422;10.782;2023-06-04T14:19:51;28.00;36.60
39847;DHT22;25517;52.422;10.782;2023-06-04T14:22:17;27.70;37.30
39847;DHT22;25517;52.422;10.782;2023-06-04T14:24:43;27.40;38.00
39847;DHT22;25517;52.422;10.782;2023-06-04T14:27:08;27.40;37.20
39847;DHT22;25517;52.422;10.782;2023-06-04T14:29:37;27.60;38.40
39847;DHT22;25517;52.422;10.782;2023-06-04T14:32:04;27.60;37.50
39847;DHT22;25517;52.422;10.782;2023-06-04T14:34:30;27.60;38.30
39847;DHT22;25517;52.422;10.782;2023-06-04T14:36:57;27.70;38.20
39847;DHT22;25517;52.422;10.782;2023-06-04T14:39:25;27.80;39.60
39847;DHT22;25517;52.422;10.782;2023-06-04T14:41:51;27.60;37.80
39847;DHT22;25517;52.422;10.782;2023-06-04T14:44:17;27.90;38.40
39847;DHT22;25517;52.422;10.782;2023-06-04T14:46:43;28.00;38.30
39847;DHT22;25517;52.422;10.782;2023-06-04T14:49:08;27.90;37.40
39847;DHT22;25517;52.422;10.782;2023-06-04T14:51:33;27.90;36.50
39847;DHT22;25517;52.422;10.782;2023-06-04T14:53:59;27.70;37.00
39847;DHT22;25517;52.422;10.782;2023-06-04T14:56:25;27.60;37.10
39847;DHT22;25517;52.422;10.782;2023-06-04T14:58:52;27.40;38.70
39847;DHT22;25517;52.422;10.782;2023-06-04T15:01:17;27.30;39.00
39847;DHT22;25517;52.422;10.782;2023-06-04T15:03:43;27.20;39.20
39847;DHT22;25517;52.422;10.782;2023-06-04T15:06:08;27.30;39.10
39847;DHT22;25517;52.422;10.782;2023-06-04T15:08:34;27.20;38.00
39847;DHT22;25517;52.422;10.782;2023-06-04T15:10:59;27.30;39.00
39847;DHT22;25517;52.422;10.782;2023-06-04T15:13:25;27.30;38.50
39847;DHT22;25517;52.422;10.782;2023-06-04T15:15:51;27.40;37.80
39847;DHT22;25517;52.422;10.782;2023-06-04T15:18:16;27.10;39.20
39847;DHT22;25517;52.422;10.782;2023-06-04T15:20:42;27.10;39.20